North Haverhill, New Hampshire
Current Conditions -  °F | °C
As of 3:15 AM on Monday 26 Jan 2015 (Local Time) from K1P1 Reporting Station
Clear Clear  
Wind Chill: -5°   Ceiling: Unl
Heat Index:   Visibility: 10mi
Dew Point: -1°   Wind: 6mph
Humidity: 74%   Direction: 300°WNW
Pressure: 30.08"   Gusts: NA
Location:  44.09°N, 72.03°W
Report Text: K1P1 260815Z AUTO 30005KT 10SM CLR M15/M18 A3008 RMK AO2 T11481185
Loading
Personal Weather Stations






























Interactive Weather Map New forecast layout! Learn more

10-Day Weather Forecast

Advertisements
Track Severe Weather on mobile